sensor_id;sensor_type;location;lat;lon;timestamp;temperature;humidity
51655;DHT22;37732;53.106;7.030;2023-03-02T00:01:30;2.70;99.90
51655;DHT22;37732;53.106;7.030;2023-03-02T00:03:58;2.70;99.90
51655;DHT22;37732;53.106;7.030;2023-03-02T00:06:26;2.70;99.90
51655;DHT22;37732;53.106;7.030;2023-03-02T00:08:52;2.90;99.90
51655;DHT22;37732;53.106;7.030;2023-03-02T00:11:18;2.90;99.90
51655;DHT22;37732;53.106;7.030;2023-03-02T00:13:44;2.70;99.90
51655;DHT22;37732;53.106;7.030;2023-03-02T00:16:09;2.80;99.90
51655;DHT22;37732;53.106;7.030;2023-03-02T00:18:35;2.60;99.90
51655;DHT22;37732;53.106;7.030;2023-03-02T00:21:01;2.60;99.90
51655;DHT22;37732;53.106;7.030;2023-03-02T00:23:27;2.70;99.90
51655;DHT22;37732;53.106;7.030;2023-03-02T00:25:52;3.20;99.90
51655;DHT22;37732;53.106;7.030;2023-03-02T00:28:18;2.50;99.90
51655;DHT22;37732;53.106;7.030;2023-03-02T00:30:43;2.80;99.90
51655;DHT22;37732;53.106;7.030;2023-03-02T00:33:09;2.70;99.90
51655;DHT22;37732;53.106;7.030;2023-03-02T00:35:39;3.40;99.90
51655;DHT22;37732;53.106;7.030;2023-03-02T00:38:05;2.60;99.90
51655;DHT22;37732;53.106;7.030;2023-03-02T00:40:33;3.00;99.90
51655;DHT22;37732;53.106;7.030;2023-03-02T00:42:58;2.40;99.90
51655;DHT22;37732;53.106;7.030;2023-03-02T00:45:24;2.40;99.90
51655;DHT22;37732;53.106;7.030;2023-03-02T00:47:50;2.30;99.90
51655;DHT22;37732;53.106;7.030;2023-03-02T00:50:16;2.30;99.90
51655;DHT22;37732;53.106;7.030;2023-03-02T00:52:41;2.40;99.90
51655;DHT22;37732;53.106;7.030;2023-03-02T00:55:07;2.70;99.90
51655;DHT22;37732;53.106;7.030;2023-03-02T00:57:34;2.20;99.90
51655;DHT22;37732;53.106;7.030;2023-03-02T00:59:59;2.20;99.90
51655;DHT22;37732;53.106;7.030;2023-03-02T01:02:25;2.30;99.90
51655;DHT22;37732;53.106;7.030;2023-03-02T01:04:51;2.20;99.90
51655;DHT22;37732;53.106;7.030;2023-03-02T01:07:20;2.20;99.90
51655;DHT22;37732;53.106;7.030;2023-03-02T01:09:47;2.20;99.90
51655;DHT22;37732;53.106;7.030;2023-03-02T01:12:15;2.90;99.90
51655;DHT22;37732;53.106;7.030;2023-03-02T01:14:44;2.30;99.90
51655;DHT22;37732;53.106;7.030;2023-03-02T01:17:11;2.20;99.90
51655;DHT22;37732;53.106;7.030;2023-03-02T01:19:38;2.20;99.90
51655;DHT22;37732;53.106;7.030;2023-03-02T01:22:04;2.70;99.90
51655;DHT22;37732;53.106;7.030;2023-03-02T01:24:30;2.30;99.90
51655;DHT22;37732;53.106;7.030;2023-03-02T01:26:56;2.70;99.90
51655;DHT22;37732;53.106;7.030;2023-03-02T01:29:22;2.00;99.90
51655;DHT22;37732;53.106;7.030;2023-03-02T01:31:47;2.90;99.90
51655;DHT22;37732;53.106;7.030;2023-03-02T01:34:13;1.90;99.90
51655;DHT22;37732;53.106;7.030;2023-03-02T01:36:39;1.90;99.90
51655;DHT22;37732;53.106;7.030;2023-03-02T01:39:04;1.80;99.90
51655;DHT22;37732;53.106;7.030;2023-03-02T01:41:30;1.90;99.90
51655;DHT22;37732;53.106;7.030;2023-03-02T01:43:56;1.80;99.90
51655;DHT22;37732;53.106;7.030;2023-03-02T01:46:27;1.80;99.90
51655;DHT22;37732;53.106;7.030;2023-03-02T01:49:03;2.60;99.90
51655;DHT22;37732;53.106;7.030;2023-03-02T01:51:32;1.70;99.90
51655;DHT22;37732;53.106;7.030;2023-03-02T01:54:09;2.20;99.90
51655;DHT22;37732;53.106;7.030;2023-03-02T01:56:38;1.70;99.90
51655;DHT22;37732;53.106;7.030;2023-03-02T01:59:12;1.90;99.90
51655;DHT22;37732;53.106;7.030;2023-03-02T02:01:41;1.60;99.90
51655;DHT22;37732;53.106;7.030;2023-03-02T02:04:08;1.60;99.90
51655;DHT22;37732;53.106;7.030;2023-03-02T02:06:38;2.00;99.90
51655;DHT22;37732;53.106;7.030;2023-03-02T02:09:08;2.00;99.90
51655;DHT22;37732;53.106;7.030;2023-03-02T02:11:34;1.70;99.90
51655;DHT22;37732;53.106;7.030;2023-03-02T02:14:01;2.00;99.90
51655;DHT22;37732;53.106;7.030;2023-03-02T02:16:30;2.30;99.90
51655;DHT22;37732;53.106;7.030;2023-03-02T02:18:56;1.70;99.90
51655;DHT22;37732;53.106;7.030;2023-03-02T02:21:23;1.70;99.90
51655;DHT22;37732;53.106;7.030;2023-03-02T02:24:11;1.70;99.90
51655;DHT22;37732;53.106;7.030;2023-03-02T02:26:44;1.70;99.90
51655;DHT22;37732;53.106;7.030;2023-03-02T02:32:03;1.70;99.90
51655;DHT22;37732;53.106;7.030;2023-03-02T02:34:32;1.70;99.90
51655;DHT22;37732;53.106;7.030;2023-03-02T02:37:08;1.70;99.90
51655;DHT22;37732;53.106;7.030;2023-03-02T02:39:39;2.50;99.90
51655;DHT22;37732;53.106;7.030;2023-03-02T02:42:11;1.60;99.90
51655;DHT22;37732;53.106;7.030;2023-03-02T02:44:38;1.90;99.90
51655;DHT22;37732;53.106;7.030;2023-03-02T02:47:16;2.70;99.90
51655;DHT22;37732;53.106;7.030;2023-03-02T02:49:43;1.60;99.90
51655;DHT22;37732;53.106;7.030;2023-03-02T02:52:13;1.60;99.90
51655;DHT22;37732;53.106;7.030;2023-03-02T02:54:39;1.60;99.90
51655;DHT22;37732;53.106;7.030;2023-03-02T02:57:09;1.50;99.90
51655;DHT22;37732;53.106;7.030;2023-03-02T02:59:41;1.50;99.90
51655;DHT22;37732;53.106;7.030;2023-03-02T03:02:18;1.50;99.90
51655;DHT22;37732;53.106;7.030;2023-03-02T03:04:45;1.50;99.90
51655;DHT22;37732;53.106;7.030;2023-03-02T03:07:16;1.50;99.90
51655;DHT22;37732;53.106;7.030;2023-03-02T03:09:42;2.20;99.90
51655;DHT22;37732;53.106;7.030;2023-03-02T03:12:17;1.50;99.90
51655;DHT22;37732;53.106;7.030;2023-03-02T03:14:45;1.50;99.90
51655;DHT22;37732;53.106;7.030;2023-03-02T03:17:11;2.50;99.90
51655;DHT22;37732;53.106;7.030;2023-03-02T03:19:40;2.00;99.90
51655;DHT22;37732;53.106;7.030;2023-03-02T03:22:07;1.50;99.90
51655;DHT22;37732;53.106;7.030;2023-03-02T03:24:34;1.60;99.90
51655;DHT22;37732;53.106;7.030;2023-03-02T03:27:00;1.60;99.90
51655;DHT22;37732;53.106;7.030;2023-03-02T03:29:30;1.60;99.90
51655;DHT22;37732;53.106;7.030;2023-03-02T03:31:56;1.60;99.90
51655;DHT22;37732;53.106;7.030;2023-03-02T03:34:23;1.50;99.90
51655;DHT22;37732;53.106;7.030;2023-03-02T03:36:49;1.50;99.90
51655;DHT22;37732;53.106;7.030;2023-03-02T03:39:15;2.00;99.90
51655;DHT22;37732;53.106;7.030;2023-03-02T03:41:41;2.10;99.90
51655;DHT22;37732;53.106;7.030;2023-03-02T03:44:08;2.60;99.90
51655;DHT22;37732;53.106;7.030;2023-03-02T03:46:34;1.50;99.90
51655;DHT22;37732;53.106;7.030;2023-03-02T03:49:00;1.60;99.90
51655;DHT22;37732;53.106;7.030;2023-03-02T03:51:26;1.50;99.90
51655;DHT22;37732;53.106;7.030;2023-03-02T03:53:52;1.50;99.90
51655;DHT22;37732;53.106;7.030;2023-03-02T03:56:28;1.50;99.90
51655;DHT22;37732;53.106;7.030;2023-03-02T03:58:54;1.70;99.90
51655;DHT22;37732;53.106;7.030;2023-03-02T04:01:48;1.60;99.90
51655;DHT22;37732;53.106;7.030;2023-03-02T04:04:33;1.60;99.90
51655;DHT22;37732;53.106;7.030;2023-03-02T04:06:59;1.60;99.90
51655;DHT22;37732;53.106;7.030;2023-03-02T04:09:26;2.00;99.90
51655;DHT22;37732;53.106;7.030;2023-03-02T04:11:53;1.60;99.90
51655;DHT22;37732;53.106;7.030;2023-03-02T04:14:21;1.50;99.90
51655;DHT22;37732;53.106;7.030;2023-03-02T04:16:47;1.50;99.90
51655;DHT22;37732;53.106;7.030;2023-03-02T04:19:13;1.60;99.90
51655;DHT22;37732;53.106;7.030;2023-03-02T04:21:43;1.60;99.90
51655;DHT22;37732;53.106;7.030;2023-03-02T04:24:11;1.50;99.90
51655;DHT22;37732;53.106;7.030;2023-03-02T04:26:39;1.50;99.90
51655;DHT22;37732;53.106;7.030;2023-03-02T04:29:05;1.50;99.90
51655;DHT22;37732;53.106;7.030;2023-03-02T04:31:31;1.50;99.90
51655;DHT22;37732;53.106;7.030;2023-03-02T04:33:57;1.80;99.90
51655;DHT22;37732;53.106;7.030;2023-03-02T04:36:24;1.40;99.90
51655;DHT22;37732;53.106;7.030;2023-03-02T04:38:49;2.40;99.90
51655;DHT22;37732;53.106;7.030;2023-03-02T04:41:16;1.40;99.90
51655;DHT22;37732;53.106;7.030;2023-03-02T04:43:42;1.40;99.90
51655;DHT22;37732;53.106;7.030;2023-03-02T04:46:12;1.50;99.90
51655;DHT22;37732;53.106;7.030;2023-03-02T04:48:38;1.50;99.90
51655;DHT22;37732;53.106;7.030;2023-03-02T04:51:04;1.40;99.90
51655;DHT22;37732;53.106;7.030;2023-03-02T04:53:30;1.40;99.90
51655;DHT22;37732;53.106;7.030;2023-03-02T04:55:56;1.70;99.90
51655;DHT22;37732;53.106;7.030;2023-03-02T04:58:21;2.60;99.90
51655;DHT22;37732;53.106;7.030;2023-03-02T05:00:47;1.30;99.90
51655;DHT22;37732;53.106;7.030;2023-03-02T05:03:13;1.30;99.90
51655;DHT22;37732;53.106;7.030;2023-03-02T05:05:38;1.30;99.90
51655;DHT22;37732;53.106;7.030;2023-03-02T05:08:04;1.30;99.90
51655;DHT22;37732;53.106;7.030;2023-03-02T05:10:29;1.40;99.90
51655;DHT22;37732;53.106;7.030;2023-03-02T05:12:55;1.50;99.90
51655;DHT22;37732;53.106;7.030;2023-03-02T05:15:38;1.30;99.90
51655;DHT22;37732;53.106;7.030;2023-03-02T05:18:05;2.00;99.90
51655;DHT22;37732;53.106;7.030;2023-03-02T05:20:31;1.30;99.90
51655;DHT22;37732;53.106;7.030;2023-03-02T05:23:00;1.30;99.90
51655;DHT22;37732;53.106;7.030;2023-03-02T05:25:27;1.50;99.90
51655;DHT22;37732;53.106;7.030;2023-03-02T05:27:53;1.30;99.90
51655;DHT22;37732;53.106;7.030;2023-03-02T05:30:20;1.40;99.90
51655;DHT22;37732;53.106;7.030;2023-03-02T05:32:46;1.30;99.90
51655;DHT22;37732;53.106;7.030;2023-03-02T05:35:13;1.30;99.90
51655;DHT22;37732;53.106;7.030;2023-03-02T05:37:39;2.10;99.90
51655;DHT22;37732;53.106;7.030;2023-03-02T05:40:08;1.20;99.90
51655;DHT22;37732;53.106;7.030;2023-03-02T05:42:35;1.20;99.90
51655;DHT22;37732;53.106;7.030;2023-03-02T05:45:03;1.20;99.90
51655;DHT22;37732;53.106;7.030;2023-03-02T05:47:29;2.00;99.90
51655;DHT22;37732;53.106;7.030;2023-03-02T05:49:55;1.10;99.90
51655;DHT22;37732;53.106;7.030;2023-03-02T05:52:20;1.10;99.90
51655;DHT22;37732;53.106;7.030;2023-03-02T05:54:46;1.50;99.90
51655;DHT22;37732;53.106;7.030;2023-03-02T05:57:12;1.90;99.90
51655;DHT22;37732;53.106;7.030;2023-03-02T05:59:37;1.80;99.90
51655;DHT22;37732;53.106;7.030;2023-03-02T06:02:03;1.00;99.90
51655;DHT22;37732;53.106;7.030;2023-03-02T06:04:28;1.00;99.90
51655;DHT22;37732;53.106;7.030;2023-03-02T06:06:54;1.60;99.90
51655;DHT22;37732;53.106;7.030;2023-03-02T06:09:20;1.00;99.90
51655;DHT22;37732;53.106;7.030;2023-03-02T06:11:47;1.40;99.90
51655;DHT22;37732;53.106;7.030;2023-03-02T06:14:12;1.00;99.90
51655;DHT22;37732;53.106;7.030;2023-03-02T06:16:38;1.00;99.90
51655;DHT22;37732;53.106;7.030;2023-03-02T06:19:04;1.20;99.90
51655;DHT22;37732;53.106;7.030;2023-03-02T06:21:29;0.90;99.90
51655;DHT22;37732;53.106;7.030;2023-03-02T06:23:55;0.90;99.90
51655;DHT22;37732;53.106;7.030;2023-03-02T06:26:21;0.90;99.90
51655;DHT22;37732;53.106;7.030;2023-03-02T06:28:46;0.90;99.90
51655;DHT22;37732;53.106;7.030;2023-03-02T06:31:12;0.90;99.90
51655;DHT22;37732;53.106;7.030;2023-03-02T06:33:37;1.30;99.90
51655;DHT22;37732;53.106;7.030;2023-03-02T06:36:03;0.90;99.90
51655;DHT22;37732;53.106;7.030;2023-03-02T06:38:29;0.90;99.90
51655;DHT22;37732;53.106;7.030;2023-03-02T06:40:55;0.90;99.90
51655;DHT22;37732;53.106;7.030;2023-03-02T06:43:20;0.90;99.90
51655;DHT22;37732;53.106;7.030;2023-03-02T06:45:46;1.30;99.90
51655;DHT22;37732;53.106;7.030;2023-03-02T06:48:11;1.60;99.90
51655;DHT22;37732;53.106;7.030;2023-03-02T06:50:37;0.80;99.90
51655;DHT22;37732;53.106;7.030;2023-03-02T06:53:03;1.10;99.90
51655;DHT22;37732;53.106;7.030;2023-03-02T06:55:29;0.80;99.90
51655;DHT22;37732;53.106;7.030;2023-03-02T06:57:55;1.60;99.90
51655;DHT22;37732;53.106;7.030;2023-03-02T07:00:22;0.70;99.90
51655;DHT22;37732;53.106;7.030;2023-03-02T07:02:53;0.60;99.90
51655;DHT22;37732;53.106;7.030;2023-03-02T07:05:19;1.00;99.90
51655;DHT22;37732;53.106;7.030;2023-03-02T07:07:45;1.50;99.90
51655;DHT22;37732;53.106;7.030;2023-03-02T07:10:12;0.70;99.90
51655;DHT22;37732;53.106;7.030;2023-03-02T07:12:39;0.80;99.90
51655;DHT22;37732;53.106;7.030;2023-03-02T07:15:05;0.90;99.90
51655;DHT22;37732;53.106;7.030;2023-03-02T07:17:35;0.80;99.90
51655;DHT22;37732;53.106;7.030;2023-03-02T07:20:03;0.80;99.90
51655;DHT22;37732;53.106;7.030;2023-03-02T07:22:29;1.30;99.90
51655;DHT22;37732;53.106;7.030;2023-03-02T07:24:55;1.20;99.90
51655;DHT22;37732;53.106;7.030;2023-03-02T07:27:21;1.00;99.90
51655;DHT22;37732;53.106;7.030;2023-03-02T07:29:46;0.90;99.90
51655;DHT22;37732;53.106;7.030;2023-03-02T07:32:12;1.10;99.90
51655;DHT22;37732;53.106;7.030;2023-03-02T07:34:38;1.00;99.90
51655;DHT22;37732;53.106;7.030;2023-03-02T07:37:04;0.90;99.90
51655;DHT22;37732;53.106;7.030;2023-03-02T07:39:29;0.90;99.90
51655;DHT22;37732;53.106;7.030;2023-03-02T07:41:59;0.90;99.90
51655;DHT22;37732;53.106;7.030;2023-03-02T07:44:26;0.90;99.90
51655;DHT22;37732;53.106;7.030;2023-03-02T07:46:51;0.90;99.90
51655;DHT22;37732;53.106;7.030;2023-03-02T07:49:17;0.90;99.90
51655;DHT22;37732;53.106;7.030;2023-03-02T07:51:43;1.10;99.90
51655;DHT22;37732;53.106;7.030;2023-03-02T07:54:08;1.00;99.90
51655;DHT22;37732;53.106;7.030;2023-03-02T07:56:34;1.00;99.90
51655;DHT22;37732;53.106;7.030;2023-03-02T07:59:00;1.00;99.90
51655;DHT22;37732;53.106;7.030;2023-03-02T08:01:26;1.00;99.90
51655;DHT22;37732;53.106;7.030;2023-03-02T08:03:52;1.10;99.90
51655;DHT22;37732;53.106;7.030;2023-03-02T08:06:17;1.10;99.90
51655;DHT22;37732;53.106;7.030;2023-03-02T08:08:43;1.10;99.90
51655;DHT22;37732;53.106;7.030;2023-03-02T08:11:12;1.80;99.90
51655;DHT22;37732;53.106;7.030;2023-03-02T08:13:38;1.20;99.90
51655;DHT22;37732;53.106;7.030;2023-03-02T08:16:05;1.50;99.90
51655;DHT22;37732;53.106;7.030;2023-03-02T08:18:32;1.20;99.90
51655;DHT22;37732;53.106;7.030;2023-03-02T08:20:58;1.50;99.90
51655;DHT22;37732;53.106;7.030;2023-03-02T08:23:24;1.70;99.90
51655;DHT22;37732;53.106;7.030;2023-03-02T08:25:54;1.30;99.90
51655;DHT22;37732;53.106;7.030;2023-03-02T08:28:21;1.60;99.90
51655;DHT22;37732;53.106;7.030;2023-03-02T08:30:57;1.30;99.90
51655;DHT22;37732;53.106;7.030;2023-03-02T08:33:24;1.40;99.90
51655;DHT22;37732;53.106;7.030;2023-03-02T08:35:58;1.40;99.90
51655;DHT22;37732;53.106;7.030;2023-03-02T08:38:26;1.50;99.90
51655;DHT22;37732;53.106;7.030;2023-03-02T08:40:52;1.50;99.90
51655;DHT22;37732;53.106;7.030;2023-03-02T08:43:19;1.50;99.90
51655;DHT22;37732;53.106;7.030;2023-03-02T08:45:49;1.50;99.90
51655;DHT22;37732;53.106;7.030;2023-03-02T08:48:14;2.50;99.90
51655;DHT22;37732;53.106;7.030;2023-03-02T08:50:40;2.40;99.90
51655;DHT22;37732;53.106;7.030;2023-03-02T08:53:06;1.70;99.90
51655;DHT22;37732;53.106;7.030;2023-03-02T08:55:34;1.80;99.90
51655;DHT22;37732;53.106;7.030;2023-03-02T08:58:01;2.40;99.90
51655;DHT22;37732;53.106;7.030;2023-03-02T09:00:26;1.90;99.90
51655;DHT22;37732;53.106;7.030;2023-03-02T09:02:52;2.00;99.90
51655;DHT22;37732;53.106;7.030;2023-03-02T09:05:18;2.10;99.90
51655;DHT22;37732;53.106;7.030;2023-03-02T09:07:43;2.00;99.90
51655;DHT22;37732;53.106;7.030;2023-03-02T09:10:09;3.10;99.90
51655;DHT22;37732;53.106;7.030;2023-03-02T09:12:35;2.10;99.90
51655;DHT22;37732;53.106;7.030;2023-03-02T09:15:01;2.20;99.90
51655;DHT22;37732;53.106;7.030;2023-03-02T09:17:26;2.20;99.90
51655;DHT22;37732;53.106;7.030;2023-03-02T09:19:52;2.20;99.90
51655;DHT22;37732;53.106;7.030;2023-03-02T09:22:17;2.20;99.90
51655;DHT22;37732;53.106;7.030;2023-03-02T09:24:43;2.20;99.90
51655;DHT22;37732;53.106;7.030;2023-03-02T09:27:09;3.20;99.90
51655;DHT22;37732;53.106;7.030;2023-03-02T09:29:34;2.90;99.90
51655;DHT22;37732;53.106;7.030;2023-03-02T09:32:00;2.40;99.90
51655;DHT22;37732;53.106;7.030;2023-03-02T09:34:25;2.60;99.90
51655;DHT22;37732;53.106;7.030;2023-03-02T09:36:51;2.40;99.90
51655;DHT22;37732;53.106;7.030;2023-03-02T09:39:17;2.40;99.90
51655;DHT22;37732;53.106;7.030;2023-03-02T09:47:03;2.50;99.90
51655;DHT22;37732;53.106;7.030;2023-03-02T09:49:42;2.50;99.90
51655;DHT22;37732;53.106;7.030;2023-03-02T09:52:31;2.40;99.90
51655;DHT22;37732;53.106;7.030;2023-03-02T09:55:17;2.50;99.90
51655;DHT22;37732;53.106;7.030;2023-03-02T09:57:44;2.60;99.90
51655;DHT22;37732;53.106;7.030;2023-03-02T10:00:27;2.80;99.90
51655;DHT22;37732;53.106;7.030;2023-03-02T10:02:57;2.60;99.90
51655;DHT22;37732;53.106;7.030;2023-03-02T10:05:27;2.70;99.90
51655;DHT22;37732;53.106;7.030;2023-03-02T10:07:53;2.70;99.90
51655;DHT22;37732;53.106;7.030;2023-03-02T10:18:08;2.90;99.90
51655;DHT22;37732;53.106;7.030;2023-03-02T10:20:42;3.00;99.90
51655;DHT22;37732;53.106;7.030;2023-03-02T10:23:38;3.00;99.90
51655;DHT22;37732;53.106;7.030;2023-03-02T10:28:54;3.20;99.90
51655;DHT22;37732;53.106;7.030;2023-03-02T10:33:51;3.20;99.90
51655;DHT22;37732;53.106;7.030;2023-03-02T10:36:22;3.30;99.90
51655;DHT22;37732;53.106;7.030;2023-03-02T10:38:48;3.30;99.90
51655;DHT22;37732;53.106;7.030;2023-03-02T10:41:21;3.30;99.90
51655;DHT22;37732;53.106;7.030;2023-03-02T10:43:51;3.30;99.90
51655;DHT22;37732;53.106;7.030;2023-03-02T10:46:18;3.30;99.90
51655;DHT22;37732;53.106;7.030;2023-03-02T10:48:57;3.30;99.90
51655;DHT22;37732;53.106;7.030;2023-03-02T10:51:30;3.40;99.90
51655;DHT22;37732;53.106;7.030;2023-03-02T10:54:08;3.50;99.90
51655;DHT22;37732;53.106;7.030;2023-03-02T10:56:34;3.60;99.90
51655;DHT22;37732;53.106;7.030;2023-03-02T10:59:00;3.50;99.90
51655;DHT22;37732;53.106;7.030;2023-03-02T11:01:30;3.60;99.90
51655;DHT22;37732;53.106;7.030;2023-03-02T11:03:58;3.70;99.90
51655;DHT22;37732;53.106;7.030;2023-03-02T11:06:24;3.80;99.90
51655;DHT22;37732;53.106;7.030;2023-03-02T11:09:17;3.80;99.90
51655;DHT22;37732;53.106;7.030;2023-03-02T11:11:52;3.90;99.90
51655;DHT22;37732;53.106;7.030;2023-03-02T11:14:18;3.90;99.90
51655;DHT22;37732;53.106;7.030;2023-03-02T11:16:44;3.90;99.90
51655;DHT22;37732;53.106;7.030;2023-03-02T11:19:16;3.90;99.90
51655;DHT22;37732;53.106;7.030;2023-03-02T11:21:55;3.90;99.90
51655;DHT22;37732;53.106;7.030;2023-03-02T11:24:31;3.80;99.90
51655;DHT22;37732;53.106;7.030;2023-03-02T11:27:05;3.80;99.90
51655;DHT22;37732;53.106;7.030;2023-03-02T11:29:46;4.40;99.90
51655;DHT22;37732;53.106;7.030;2023-03-02T11:32:30;4.10;99.90
51655;DHT22;37732;53.106;7.030;2023-03-02T11:35:03;4.10;99.90
51655;DHT22;37732;53.106;7.030;2023-03-02T11:37:38;4.40;99.90
51655;DHT22;37732;53.106;7.030;2023-03-02T11:42:55;4.30;99.90
51655;DHT22;37732;53.106;7.030;2023-03-02T11:45:27;4.30;99.90
51655;DHT22;37732;53.106;7.030;2023-03-02T11:51:12;4.30;99.90
51655;DHT22;37732;53.106;7.030;2023-03-02T11:53:57;4.30;99.90
51655;DHT22;37732;53.106;7.030;2023-03-02T11:56:24;4.30;99.90
51655;DHT22;37732;53.106;7.030;2023-03-02T11:58:58;4.30;99.90
51655;DHT22;37732;53.106;7.030;2023-03-02T12:01:25;4.30;99.90
51655;DHT22;37732;53.106;7.030;2023-03-02T12:03:53;4.30;99.90
51655;DHT22;37732;53.106;7.030;2023-03-02T12:08:53;4.40;99.90
51655;DHT22;37732;53.106;7.030;2023-03-02T12:16:22;4.50;99.90
51655;DHT22;37732;53.106;7.030;2023-03-02T12:18:58;4.50;99.90
51655;DHT22;37732;53.106;7.030;2023-03-02T12:21:24;4.50;99.90
51655;DHT22;37732;53.106;7.030;2023-03-02T12:31:50;4.70;99.90
51655;DHT22;37732;53.106;7.030;2023-03-02T12:34:35;4.80;99.90
51655;DHT22;37732;53.106;7.030;2023-03-02T12:37:17;4.80;99.90
51655;DHT22;37732;53.106;7.030;2023-03-02T12:48:05;5.00;99.90
51655;DHT22;37732;53.106;7.030;2023-03-02T12:50:41;5.10;99.90
51655;DHT22;37732;53.106;7.030;2023-03-02T12:53:17;5.30;99.90
51655;DHT22;37732;53.106;7.030;2023-03-02T12:55:42;5.10;99.90
51655;DHT22;37732;53.106;7.030;2023-03-02T12:58:18;5.20;99.90
51655;DHT22;37732;53.106;7.030;2023-03-02T13:00:53;5.40;99.90
51655;DHT22;37732;53.106;7.030;2023-03-02T13:03:19;5.30;99.90
51655;DHT22;37732;53.106;7.030;2023-03-02T13:05:45;5.30;99.90
51655;DHT22;37732;53.106;7.030;2023-03-02T13:08:21;5.20;99.90
51655;DHT22;37732;53.106;7.030;2023-03-02T13:10:55;5.30;99.90
51655;DHT22;37732;53.106;7.030;2023-03-02T13:13:22;5.30;99.90
51655;DHT22;37732;53.106;7.030;2023-03-02T13:15:57;5.40;99.90
51655;DHT22;37732;53.106;7.030;2023-03-02T13:18:27;5.40;99.90
51655;DHT22;37732;53.106;7.030;2023-03-02T13:20:56;5.60;99.90
51655;DHT22;37732;53.106;7.030;2023-03-02T13:23:23;5.50;99.90
51655;DHT22;37732;53.106;7.030;2023-03-02T13:25:59;5.60;99.90
51655;DHT22;37732;53.106;7.030;2023-03-02T13:28:31;5.60;99.90
51655;DHT22;37732;53.106;7.030;2023-03-02T13:31:01;5.70;99.90
51655;DHT22;37732;53.106;7.030;2023-03-02T13:33:29;5.80;99.90
51655;DHT22;37732;53.106;7.030;2023-03-02T13:35:55;6.00;99.90
51655;DHT22;37732;53.106;7.030;2023-03-02T13:38:23;5.80;99.90
51655;DHT22;37732;53.106;7.030;2023-03-02T13:40:54;5.80;99.90
51655;DHT22;37732;53.106;7.030;2023-03-02T13:43:37;5.90;99.90
51655;DHT22;37732;53.106;7.030;2023-03-02T13:46:05;6.00;99.90
51655;DHT22;37732;53.106;7.030;2023-03-02T13:48:58;6.00;99.90
51655;DHT22;37732;53.106;7.030;2023-03-02T13:51:25;6.00;99.90
51655;DHT22;37732;53.106;7.030;2023-03-02T13:54:00;6.00;99.90
51655;DHT22;37732;53.106;7.030;2023-03-02T13:56:38;6.00;99.90
51655;DHT22;37732;53.106;7.030;2023-03-02T13:59:14;6.00;99.90
51655;DHT22;37732;53.106;7.030;2023-03-02T14:01:41;6.00;99.90
51655;DHT22;37732;53.106;7.030;2023-03-02T14:04:11;6.00;99.90
51655;DHT22;37732;53.106;7.030;2023-03-02T14:06:37;6.10;99.90
51655;DHT22;37732;53.106;7.030;2023-03-02T14:09:03;6.30;99.90
51655;DHT22;37732;53.106;7.030;2023-03-02T14:11:36;6.10;99.90
51655;DHT22;37732;53.106;7.030;2023-03-02T14:14:04;6.20;99.90
51655;DHT22;37732;53.106;7.030;2023-03-02T14:16:31;6.20;99.90
51655;DHT22;37732;53.106;7.030;2023-03-02T14:19:00;6.20;99.90
51655;DHT22;37732;53.106;7.030;2023-03-02T14:21:26;6.20;99.90
51655;DHT22;37732;53.106;7.030;2023-03-02T14:23:52;6.20;99.90
51655;DHT22;37732;53.106;7.030;2023-03-02T14:26:34;6.30;99.90
51655;DHT22;37732;53.106;7.030;2023-03-02T14:29:08;6.30;99.90
51655;DHT22;37732;53.106;7.030;2023-03-02T14:31:38;6.50;99.90
51655;DHT22;37732;53.106;7.030;2023-03-02T14:34:03;6.40;99.90
51655;DHT22;37732;53.106;7.030;2023-03-02T14:36:32;6.50;99.90
51655;DHT22;37732;53.106;7.030;2023-03-02T14:39:00;6.40;99.90
51655;DHT22;37732;53.106;7.030;2023-03-02T14:41:27;6.40;99.90
51655;DHT22;37732;53.106;7.030;2023-03-02T14:43:53;6.50;99.90
51655;DHT22;37732;53.106;7.030;2023-03-02T14:46:19;6.60;99.90
51655;DHT22;37732;53.106;7.030;2023-03-02T14:48:45;6.60;99.90
51655;DHT22;37732;53.106;7.030;2023-03-02T14:51:23;6.70;99.90
51655;DHT22;37732;53.106;7.030;2023-03-02T14:53:52;6.70;99.90
51655;DHT22;37732;53.106;7.030;2023-03-02T14:56:20;6.80;99.90
51655;DHT22;37732;53.106;7.030;2023-03-02T14:58:50;6.70;99.90
51655;DHT22;37732;53.106;7.030;2023-03-02T15:01:16;6.70;99.90
51655;DHT22;37732;53.106;7.030;2023-03-02T15:03:42;6.70;99.90
51655;DHT22;37732;53.106;7.030;2023-03-02T15:06:28;6.60;99.90
51655;DHT22;37732;53.106;7.030;2023-03-02T15:08:56;6.70;99.90
51655;DHT22;37732;53.106;7.030;2023-03-02T15:11:22;6.60;99.90
51655;DHT22;37732;53.106;7.030;2023-03-02T15:13:48;6.80;99.90
51655;DHT22;37732;53.106;7.030;2023-03-02T15:16:14;6.70;99.90
51655;DHT22;37732;53.106;7.030;2023-03-02T15:18:40;6.70;99.90
51655;DHT22;37732;53.106;7.030;2023-03-02T15:21:06;6.70;99.90
51655;DHT22;37732;53.106;7.030;2023-03-02T15:23:32;6.60;99.90
51655;DHT22;37732;53.106;7.030;2023-03-02T15:25:59;6.60;99.90
51655;DHT22;37732;53.106;7.030;2023-03-02T15:28:25;6.60;99.90
51655;DHT22;37732;53.106;7.030;2023-03-02T15:30:51;6.60;99.90
51655;DHT22;37732;53.106;7.030;2023-03-02T15:33:16;6.60;99.90
51655;DHT22;37732;53.106;7.030;2023-03-02T15:35:42;6.50;99.90
51655;DHT22;37732;53.106;7.030;2023-03-02T15:38:09;6.50;99.90
51655;DHT22;37732;53.106;7.030;2023-03-02T15:40:36;6.50;99.90
51655;DHT22;37732;53.106;7.030;2023-03-02T15:43:01;6.50;99.90
51655;DHT22;37732;53.106;7.030;2023-03-02T15:45:27;6.50;99.90
51655;DHT22;37732;53.106;7.030;2023-03-02T15:47:53;6.40;99.90
51655;DHT22;37732;53.106;7.030;2023-03-02T15:50:20;6.40;99.90
51655;DHT22;37732;53.106;7.030;2023-03-02T15:52:46;6.40;99.90
51655;DHT22;37732;53.106;7.030;2023-03-02T15:55:12;6.30;99.90
51655;DHT22;37732;53.106;7.030;2023-03-02T15:57:40;6.40;99.90
51655;DHT22;37732;53.106;7.030;2023-03-02T16:00:06;6.40;99.90
51655;DHT22;37732;53.106;7.030;2023-03-02T16:02:32;6.40;99.90
51655;DHT22;37732;53.106;7.030;2023-03-02T16:04:58;6.30;99.90
51655;DHT22;37732;53.106;7.030;2023-03-02T16:07:24;6.40;99.90
51655;DHT22;37732;53.106;7.030;2023-03-02T16:09:50;6.30;99.90
51655;DHT22;37732;53.106;7.030;2023-03-02T16:12:16;6.30;99.90
51655;DHT22;37732;53.106;7.030;2023-03-02T16:14:44;6.30;99.90
51655;DHT22;37732;53.106;7.030;2023-03-02T16:17:10;6.30;99.90
51655;DHT22;37732;53.106;7.030;2023-03-02T16:19:36;6.30;99.90
51655;DHT22;37732;53.106;7.030;2023-03-02T16:22:02;6.30;99.90
51655;DHT22;37732;53.106;7.030;2023-03-02T16:24:28;6.40;99.90
51655;DHT22;37732;53.106;7.030;2023-03-02T16:26:53;6.20;99.90
51655;DHT22;37732;53.106;7.030;2023-03-02T16:29:19;6.20;99.90
51655;DHT22;37732;53.106;7.030;2023-03-02T16:31:46;6.10;99.90
51655;DHT22;37732;53.106;7.030;2023-03-02T16:34:12;6.00;99.90
51655;DHT22;37732;53.106;7.030;2023-03-02T16:36:39;6.00;99.90
51655;DHT22;37732;53.106;7.030;2023-03-02T16:39:07;5.80;99.90
51655;DHT22;37732;53.106;7.030;2023-03-02T16:41:33;5.70;99.90
51655;DHT22;37732;53.106;7.030;2023-03-02T16:43:59;5.60;99.90